Time;durP1;ratioP1;P1;durP2;ratioP2;P2;SDS_P1;SDS_P2;PMS_P1;PMS_P2;Temp;Humidity;BMP_temperature;BMP_pressure;BME280_temperature;BME280_humidity;BME280_pressure;Samples;Min_cycle;Max_cycle;Signal;HPM_P1;HPM_P2
2021/10/13 00:01:17;;;;;;;8.68;5.35;;;;;;;4.29;76.36;100148.50;2112566;82;29910;-62
2021/10/13 00:04:24;;;;;;;10.63;5.70;;;;;;;4.25;76.48;100158.77;2098057;82;31043;-60
2021/10/13 00:07:30;;;;;;;11.75;5.58;;;;;;;4.24;76.65;100164.97;2112782;82;33024;-59
2021/10/13 00:10:36;;;;;;;10.90;4.65;;;;;;;4.21;76.66;100163.28;2083194;82;30125;-59
2021/10/13 00:13:40;;;;;;;10.53;4.80;;;;;;;4.22;76.83;100168.11;2098907;83;27729;-59
2021/10/13 00:16:52;;;;;;;9.23;5.00;;;;;;;4.22;76.95;100167.65;2113098;82;28727;-60
2021/10/13 00:19:48;;;;;;;9.33;5.10;;;;;;;4.24;77.07;100163.18;2114780;82;31105;-60
2021/10/13 00:22:54;;;;;;;15.08;7.67;;;;;;;4.28;77.21;100166.64;2122076;83;33027;-60
2021/10/13 00:26:00;;;;;;;14.03;6.30;;;;;;;4.33;77.19;100166.52;2116030;82;29394;-60
2021/10/13 00:29:06;;;;;;;9.08;6.00;;;;;;;4.37;77.27;100168.19;2116630;82;27663;-60
2021/10/13 00:32:12;;;;;;;11.55;5.72;;;;;;;4.42;77.33;100162.28;2059733;84;29531;-61
2021/10/13 00:35:15;;;;;;;8.60;5.33;;;;;;;4.48;77.42;100157.27;2090628;83;31082;-60
2021/10/13 00:38:21;;;;;;;11.55;6.40;;;;;;;4.54;77.44;100165.07;2113354;82;33822;-60
2021/10/13 00:41:25;;;;;;;11.03;6.12;;;;;;;4.57;77.50;100166.32;2112061;82;29429;-60
2021/10/13 00:44:30;;;;;;;10.85;5.42;;;;;;;4.65;77.56;100167.44;2039251;85;27843;-60
2021/10/13 00:47:35;;;;;;;11.75;6.78;;;;;;;4.71;77.64;100165.48;2124479;82;29487;-60
2021/10/13 00:50:40;;;;;;;;;;;;;;;4.79;77.67;100165.27;2079456;83;31891;-60
2021/10/13 00:53:45;;;;;;;11.20;5.50;;;;;;;4.83;77.64;100160.30;2087059;82;32991;-60
2021/10/13 00:56:50;;;;;;;11.18;5.67;;;;;;;4.83;77.42;100166.05;2098612;83;29368;-60
2021/10/13 00:59:52;;;;;;;12.35;5.28;;;;;;;4.82;77.37;100172.27;2109828;82;27782;-61
2021/10/13 01:03:08;;;;;;;12.90;6.12;;;;;;;4.81;77.38;100167.43;2114182;82;29907;-61
2021/10/13 01:06:30;;;;;;;16.93;6.10;;;;;;;4.83;77.48;100162.95;2077210;83;31171;-62
2021/10/13 01:09:42;;;;;;;12.00;5.83;;;;;;;4.84;77.53;100166.02;2099882;83;32996;-61
2021/10/13 01:13:34;;;;;;;15.18;5.90;;;;;;;4.85;77.54;100163.78;2102736;83;30689;-60
2021/10/13 01:16:52;;;;;;;12.47;6.60;;;;;;;4.85;77.41;100169.53;1985943;88;27945;-60
2021/10/13 01:20:16;;;;;;;10.95;6.30;;;;;;;4.82;77.32;100169.17;1979939;88;29523;-60
2021/10/13 01:23:43;;;;;;;12.40;6.20;;;;;;;4.77;77.22;100171.08;1949050;88;32284;-60
2021/10/13 01:27:15;;;;;;;12.40;6.53;;;;;;;4.73;77.18;100165.91;1979691;88;34235;-60
2021/10/13 01:30:20;;;;;;;14.40;6.92;;;;;;;4.67;77.13;100173.58;1968162;88;29733;-60
2021/10/13 01:33:30;;;;;;;11.68;5.45;;;;;;;4.59;77.06;100176.88;1986882;88;27903;-61
2021/10/13 01:36:48;;;;;;;13.30;6.17;;;;;;;4.55;77.09;100184.06;1957009;88;28477;-61
2021/10/13 01:39:54;;;;;;;10.88;6.30;;;;;;;4.48;77.07;100183.80;1910025;90;31105;-61
2021/10/13 01:43:00;;;;;;;12.58;6.58;;;;;;;4.41;77.07;100180.44;1971441;89;32983;-61
2021/10/13 01:46:07;;;;;;;12.63;6.97;;;;;;;4.35;77.08;100189.90;1965621;88;29367;-67
2021/10/13 01:49:09;;;;;;;13.15;6.42;;;;;;;4.30;77.10;100188.70;1968651;85;28507;-61
2021/10/13 01:52:15;;;;;;;11.43;6.30;;;;;;;4.25;77.14;100192.77;2039958;85;28451;-60
2021/10/13 01:55:20;;;;;;;8.48;4.78;;;;;;;4.22;77.22;100192.84;2004579;86;31902;-61
2021/10/13 01:58:27;;;;;;;16.20;5.90;;;;;;;4.20;77.25;100190.70;2022514;85;33048;-61
2021/10/13 02:01:31;;;;;;;11.20;5.80;;;;;;;4.20;77.41;100190.70;2025292;86;29345;-60
2021/10/13 02:04:42;;;;;;;10.80;6.00;;;;;;;4.21;77.53;100196.43;2054743;84;27709;-62
2021/10/13 02:07:47;;;;;;;11.18;6.47;;;;;;;4.24;77.66;100198.12;1997340;86;29948;-68
2021/10/13 02:10:51;;;;;;;11.12;5.83;;;;;;;4.30;77.70;100190.45;2050761;84;31091;-60
2021/10/13 02:13:56;;;;;;;9.80;5.20;;;;;;;4.32;77.68;100194.80;2046552;84;33415;-63
2021/10/13 02:17:01;;;;;;;10.55;5.47;;;;;;;4.34;77.65;100194.31;2056608;84;29364;-60
2021/10/13 02:20:05;;;;;;;8.03;5.42;;;;;;;4.35;77.66;100205.81;2044905;85;27826;-63
2021/10/13 02:23:09;;;;;;;9.85;5.22;;;;;;;4.35;77.64;100209.31;2062343;84;28662;-60
2021/10/13 02:26:18;;;;;;;11.57;5.67;;;;;;;4.33;77.52;100207.16;2058468;84;31835;-60
2021/10/13 02:29:24;;;;;;;11.93;5.97;;;;;;;4.31;77.43;100216.92;2009336;86;33092;-61
2021/10/13 02:32:27;;;;;;;13.48;6.50;;;;;;;4.25;77.31;100223.26;2023774;85;29472;-60
2021/10/13 02:35:33;;;;;;;10.23;6.45;;;;;;;4.21;77.25;100226.03;2018953;86;27705;-60
2021/10/13 02:38:35;;;;;;;12.28;6.28;;;;;;;4.16;77.18;100225.27;2048836;84;28716;-62
2021/10/13 02:41:41;;;;;;;13.58;7.00;;;;;;;4.09;77.12;100229.41;2047290;85;32180;-60
2021/10/13 02:44:44;;;;;;;9.55;5.55;;;;;;;4.04;77.12;100239.23;2102334;83;34147;-60
2021/10/13 02:48:04;;;;;;;13.60;6.37;;;;;;;3.99;77.03;100242.91;2091668;83;29359;-62
2021/10/13 02:51:17;;;;;;;11.68;6.03;;;;;;;3.92;76.97;100243.05;2102831;82;27633;-61
2021/10/13 02:54:30;;;;;;;10.80;5.00;;;;;;;3.86;77.04;100246.29;2121796;82;28676;-60
2021/10/13 02:57:40;;;;;;;11.08;5.28;;;;;;;3.80;77.22;100249.52;2092274;83;31492;-60
2021/10/13 03:00:48;;;;;;;10.28;5.53;;;;;;;3.77;77.26;100250.02;2017327;86;33347;-61
2021/10/13 03:03:56;;;;;;;11.97;5.45;;;;;;;3.71;77.28;100255.01;2122199;82;30237;-61
2021/10/13 03:07:06;;;;;;;10.82;4.90;;;;;;;3.67;77.36;100261.73;2068053;83;27649;-61
2021/10/13 03:10:13;;;;;;;13.95;5.08;;;;;;;3.63;77.44;100257.83;2093658;82;30022;-60
2021/10/13 03:13:20;;;;;;;11.30;5.60;;;;;;;3.60;77.43;100268.48;2062228;84;31078;-61
2021/10/13 03:16:26;;;;;;;13.40;5.53;;;;;;;3.56;77.37;100271.23;2014717;86;32958;-61
2021/10/13 03:19:35;;;;;;;11.40;5.28;;;;;;;3.52;77.38;100274.84;2043854;84;29448;-63
2021/10/13 03:22:38;;;;;;;14.63;5.33;;;;;;;3.46;77.44;100274.52;2056908;84;28466;-65
2021/10/13 03:25:45;;;;;;;10.93;5.30;;;;;;;3.43;77.47;100277.23;2052725;84;28963;-59
2021/10/13 03:28:52;;;;;;;8.90;4.90;;;;;;;3.39;77.41;100279.08;2053196;85;31106;-59
2021/10/13 03:31:59;;;;;;;11.25;5.12;;;;;;;3.34;77.45;100276.53;2037186;86;33094;-60
2021/10/13 03:35:02;;;;;;;15.65;6.78;;;;;;;3.31;77.45;100282.34;2100650;82;29538;-62
2021/10/13 03:38:09;;;;;;;11.70;6.80;;;;;;;3.26;77.37;100293.00;2088688;83;27894;-60
2021/10/13 03:41:16;;;;;;;14.13;5.85;;;;;;;3.23;77.44;100298.82;2090223;83;28710;-59
2021/10/13 03:44:21;;;;;;;13.93;7.65;;;;;;;3.17;77.46;100303.32;2116363;82;31025;-59
2021/10/13 03:47:27;;;;;;;9.98;5.08;;;;;;;3.14;77.53;100306.48;2106955;82;34131;-59
2021/10/13 03:50:29;;;;;;;11.15;5.37;;;;;;;3.09;77.54;100305.69;2111977;83;30252;-60
2021/10/13 03:53:35;;;;;;;17.05;5.92;;;;;;;3.06;77.61;100307.95;2105283;83;27770;-58
2021/10/13 03:56:43;;;;;;;13.40;5.53;;;;;;;3.05;77.62;100310.17;2104514;83;28728;-61
2021/10/13 03:59:45;;;;;;;11.08;5.25;;;;;;;3.00;77.53;100310.27;2103168;83;31110;-60
2021/10/13 04:02:49;;;;;;;10.28;5.53;;;;;;;2.98;77.68;100311.20;2109793;82;33400;-59
2021/10/13 04:05:54;;;;;;;10.98;5.37;;;;;;;2.95;77.68;100312.58;2075689;83;29432;-59
2021/10/13 04:09:00;;;;;;;8.03;5.10;;;;;;;2.95;77.72;100320.05;2097513;83;28015;-62
2021/10/13 04:12:07;;;;;;;10.35;5.20;;;;;;;2.95;77.76;100329.78;2103036;83;28778;-59
2021/10/13 04:15:13;;;;;;;8.95;5.03;;;;;;;2.96;77.90;100328.87;2094443;82;31063;-59
2021/10/13 04:21:26;;;;;;;11.50;5.50;;;;;;;3.07;78.37;100332.63;2092965;82;29470;-58
2021/10/13 04:24:32;;;;;;;11.12;5.92;;;;;;;3.15;78.58;100341.32;2119583;83;27773;-58
2021/10/13 04:27:36;;;;;;;10.60;5.75;;;;;;;3.23;78.64;100343.36;2109594;82;28697;-59
2021/10/13 04:33:48;;;;;;;14.10;6.55;;;;;;;3.41;78.75;100340.83;2114370;83;33019;-59
2021/10/13 04:36:52;;;;;;;9.43;5.03;;;;;;;3.48;78.65;100337.61;2090336;83;29353;-59
2021/10/13 04:39:58;;;;;;;14.00;6.50;;;;;;;3.52;78.57;100341.06;2100821;83;28180;-60
2021/10/13 04:46:07;;;;;;;10.03;4.83;;;;;;;3.56;78.47;100345.40;2102548;82;31499;-58
2021/10/13 04:49:12;;;;;;;12.95;5.80;;;;;;;3.57;78.43;100343.17;2099155;83;32979;-58
2021/10/13 04:52:16;;;;;;;10.20;4.95;;;;;;;3.58;78.41;100351.55;2082091;83;29544;-59
2021/10/13 04:55:18;;;;;;;14.15;6.25;;;;;;;3.56;78.30;100348.91;2108856;82;28238;-58
2021/10/13 04:58:19;;;;;;;14.53;6.37;;;;;;;3.55;78.25;100346.30;2095046;83;29913;-59
2021/10/13 05:01:26;;;;;;;11.85;7.10;;;;;;;3.51;78.25;100345.50;2112562;82;31433;-59
2021/10/13 05:04:32;;;;;;;11.75;6.40;;;;;;;3.47;78.22;100355.29;2091649;82;32994;-59
2021/10/13 05:07:38;;;;;;;16.12;6.75;;;;;;;3.45;78.30;100350.47;2106532;83;30124;-60
2021/10/13 05:10:45;;;;;;;13.58;6.70;;;;;;;3.44;78.27;100362.40;2116327;82;27740;-59
2021/10/13 05:13:49;;;;;;;12.53;7.53;;;;;;;3.42;78.20;100365.52;2111657;83;28817;-59
2021/10/13 05:16:56;;;;;;;16.62;7.33;;;;;;;3.43;78.30;100363.30;2108525;83;31440;-61
2021/10/13 05:20:00;;;;;;;14.35;8.00;;;;;;;3.43;78.39;100369.48;2085693;83;33379;-58
2021/10/13 05:23:03;;;;;;;15.13;7.87;;;;;;;3.46;78.40;100371.19;2095339;82;28813;-59
2021/10/13 05:26:09;;;;;;;12.70;7.30;;;;;;;3.49;78.48;100371.99;2080018;82;28640;-62
2021/10/13 05:29:13;;;;;;;13.85;7.20;;;;;;;3.55;78.51;100375.44;2130280;81;28682;-59
2021/10/13 05:32:16;;;;;;;19.27;8.97;;;;;;;3.60;78.58;100390.80;2121793;82;31242;-59
2021/10/13 05:35:20;;;;;;;11.05;6.55;;;;;;;3.66;78.65;100395.95;2124815;83;32982;-58
2021/10/13 05:38:27;;;;;;;9.68;6.47;;;;;;;3.74;78.77;100394.48;2118341;83;29383;-61
2021/10/13 05:41:32;;;;;;;12.13;7.47;;;;;;;3.85;78.88;100401.78;2117738;83;27787;-62
2021/10/13 05:44:35;;;;;;;12.98;7.15;;;;;;;3.96;79.00;100414.83;2094439;83;28649;-58
2021/10/13 05:47:38;;;;;;;10.55;6.85;;;;;;;4.05;78.98;100412.44;2113281;83;31965;-59
2021/10/13 05:50:42;;;;;;;13.18;6.83;;;;;;;4.16;78.98;100422.35;2122039;82;33037;-59
2021/10/13 05:53:48;;;;;;;10.43;6.20;;;;;;;4.27;78.98;100422.12;2108842;83;29359;-59
2021/10/13 05:56:54;;;;;;;7.85;5.78;;;;;;;4.36;78.92;100423.70;2083784;83;27849;-60
2021/10/13 06:00:00;;;;;;;21.12;13.08;;;;;;;4.46;78.96;100434.52;2104994;83;29652;-59
2021/10/13 06:03:03;;;;;;;9.23;6.30;;;;;;;4.53;78.86;100436.14;2117635;83;31055;-59
2021/10/13 06:06:09;;;;;;;11.90;6.60;;;;;;;4.63;78.84;100435.48;2111404;83;33265;-59
2021/10/13 06:09:11;;;;;;;12.85;6.33;;;;;;;4.73;78.91;100441.89;2083877;83;29383;-59
2021/10/13 06:12:15;;;;;;;15.35;6.60;;;;;;;4.88;78.99;100442.00;2063791;84;28213;-59
2021/10/13 06:15:19;;;;;;;12.82;6.20;;;;;;;4.98;78.78;100443.05;2095351;82;28696;-59
2021/10/13 06:18:22;;;;;;;14.73;6.78;;;;;;;5.09;78.71;100450.75;2076819;83;31768;-59
2021/10/13 06:21:28;;;;;;;9.70;6.22;;;;;;;5.20;78.65;100457.60;2111031;83;33553;-60
2021/10/13 06:24:32;;;;;;;7.10;4.60;;;;;;;5.32;78.68;100461.27;2069555;83;30236;-61
2021/10/13 06:27:38;;;;;;;12.40;6.72;;;;;;;5.40;78.50;100463.26;2090340;83;27761;-59
2021/10/13 06:30:43;;;;;;;11.45;5.72;;;;;;;5.48;78.35;100460.41;2121723;82;29617;-59
2021/10/13 06:33:48;;;;;;;10.05;5.87;;;;;;;5.59;78.36;100470.31;2116673;82;31037;-60
2021/10/13 06:36:55;;;;;;;9.73;6.53;;;;;;;5.67;78.30;100461.25;2133050;82;32971;-59
2021/10/13 06:40:02;;;;;;;9.83;6.47;;;;;;;5.81;78.27;100466.20;2108870;82;29370;-59
2021/10/13 06:43:10;;;;;;;11.90;6.15;;;;;;;5.90;78.18;100480.56;2094666;82;27813;-58
2021/10/13 06:46:15;;;;;;;15.75;7.85;;;;;;;5.99;78.07;100479.44;2100738;83;28710;-58
2021/10/13 06:49:22;;;;;;;11.83;6.80;;;;;;;6.07;78.00;100491.64;2121075;82;31969;-58
2021/10/13 06:52:23;;;;;;;14.50;7.40;;;;;;;6.19;78.14;100485.11;2099772;83;34168;-58
2021/10/13 06:55:28;;;;;;;9.98;7.62;;;;;;;6.30;78.02;100486.14;2134788;81;29737;-58
2021/10/13 06:58:30;;;;;;;8.98;6.03;;;;;;;6.40;77.88;100486.73;2134857;81;27757;-58
2021/10/13 07:01:35;;;;;;;12.25;7.03;;;;;;;6.47;77.72;100486.95;2113376;82;28681;-59
2021/10/13 07:04:41;;;;;;;14.03;7.50;;;;;;;6.53;77.62;100500.56;2117932;82;31068;-58
2021/10/13 07:07:49;;;;;;;11.18;7.20;;;;;;;6.56;77.51;100509.77;2120712;82;32999;-60
2021/10/13 07:10:56;;;;;;;11.28;6.50;;;;;;;6.65;77.69;100504.19;2118731;83;29340;-58
2021/10/13 07:14:02;;;;;;;12.90;6.70;;;;;;;6.74;77.49;100509.69;2090229;83;27749;-59
2021/10/13 07:17:08;;;;;;;14.65;6.45;;;;;;;6.84;77.51;100505.81;2109315;82;28671;-60
2021/10/13 07:20:15;;;;;;;13.40;7.17;;;;;;;6.93;77.19;100507.32;2124770;83;31063;-58
2021/10/13 07:23:18;;;;;;;12.40;7.22;;;;;;;7.03;77.31;100511.05;2103406;82;34170;-58
2021/10/13 07:26:23;;;;;;;13.55;7.12;;;;;;;7.09;77.02;100513.50;2096873;83;29410;-58
2021/10/13 07:29:28;;;;;;;13.62;7.40;;;;;;;7.15;76.77;100515.98;2090479;83;27700;-58
2021/10/13 07:32:34;;;;;;;;;;;;;;;7.22;76.88;100526.83;2060102;84;28699;-58
2021/10/13 07:35:41;;;;;;;11.97;7.10;;;;;;;7.29;76.73;100526.17;2083389;83;31106;-60
2021/10/13 07:38:46;;;;;;;10.25;6.75;;;;;;;7.36;76.76;100521.54;2085800;83;33008;-58
2021/10/13 07:41:48;;;;;;;10.95;6.87;;;;;;;7.41;76.62;100531.13;2099111;83;29386;-59
2021/10/13 07:44:54;;;;;;;11.70;7.65;;;;;;;7.48;76.61;100535.79;2096015;83;27765;-59
2021/10/13 07:48:01;;;;;;;13.03;7.67;;;;;;;7.53;76.33;100536.97;2082965;83;28745;-58
2021/10/13 07:51:05;;;;;;;8.18;6.10;;;;;;;7.64;76.55;100536.61;2076099;83;31043;-59
2021/10/13 07:54:12;;;;;;;13.72;7.50;;;;;;;7.70;76.16;100537.72;2089110;83;36690;-58
2021/10/13 07:57:14;;;;;;;16.23;7.55;;;;;;;7.75;76.00;100546.44;2059389;83;29437;-59
2021/10/13 08:00:19;;;;;;;11.22;6.60;;;;;;;7.81;76.07;100542.24;2054716;84;27782;-59
2021/10/13 08:03:25;;;;;;;9.08;7.10;;;;;;;7.88;76.01;100558.43;2070209;84;28699;-59
2021/10/13 08:06:31;;;;;;;14.07;7.35;;;;;;;7.93;76.00;100548.95;2045763;83;31926;-60
2021/10/13 08:09:38;;;;;;;13.40;8.00;;;;;;;8.01;75.96;100549.55;2117866;83;32967;-59
2021/10/13 08:12:44;;;;;;;12.05;8.23;;;;;;;8.09;75.84;100550.61;2119834;83;29357;-58
2021/10/13 08:15:49;;;;;;;19.73;7.65;;;;;;;8.16;75.84;100545.92;2118173;83;27617;-58
2021/10/13 08:21:56;;;;;;;11.73;6.87;;;;;;;8.36;75.75;100549.20;2112165;83;30817;-63
2021/10/13 08:25:02;;;;;;;10.30;6.30;;;;;;;8.45;75.62;100552.00;2063585;84;33503;-60
2021/10/13 08:28:08;;;;;;;7.62;6.08;;;;;;;8.52;75.60;100548.22;2015845;86;30265;-63
2021/10/13 08:31:14;;;;;;;10.50;6.30;;;;;;;8.69;75.32;100554.73;2086841;83;27856;-65
2021/10/13 08:34:21;;;;;;;13.85;7.20;;;;;;;8.90;75.41;100557.92;2069721;84;28243;-60
2021/10/13 08:37:27;;;;;;;12.03;6.42;;;;;;;9.33;75.83;100559.82;2054669;85;31211;-60
2021/10/13 08:40:31;;;;;;;7.87;5.53;;;;;;;9.80;75.89;100559.66;2057032;85;32999;-61
2021/10/13 08:43:33;;;;;;;8.75;6.60;;;;;;;10.14;75.25;100552.00;2040491;83;29364;-60
2021/10/13 08:46:37;;;;;;;6.58;4.17;;;;;;;10.36;74.73;100551.03;2059891;85;27621;-60
2021/10/13 08:49:46;;;;;;;6.80;4.47;;;;;;;10.41;73.85;100552.62;2076830;83;28714;-60
2021/10/13 08:53:13;;;;;;;7.80;4.72;;;;;;;10.40;73.40;100555.34;2076992;83;31134;-60
2021/10/13 08:56:19;;;;;;;5.50;4.12;;;;;;;10.40;72.76;100554.02;2069986;83;34564;-59
2021/10/13 08:59:21;;;;;;;8.03;5.60;;;;;;;10.40;73.18;100562.05;2083563;83;29354;-60
2021/10/13 09:02:46;;;;;;;11.20;8.43;;;;;;;10.49;72.95;100580.40;2086766;83;27803;-59
2021/10/13 09:05:52;;;;;;;9.63;5.42;;;;;;;10.64;73.00;100569.44;2122205;83;28684;-61
2021/10/13 09:09:08;;;;;;;8.80;5.37;;;;;;;10.94;73.11;100572.52;2110225;82;31079;-61
2021/10/13 09:12:14;;;;;;;11.97;5.67;;;;;;;11.09;72.96;100567.38;2104891;83;33765;-59
2021/10/13 09:15:21;;;;;;;9.30;5.75;;;;;;;11.28;72.39;100567.35;2055543;84;29344;-63
2021/10/13 09:18:27;;;;;;;8.10;4.87;;;;;;;11.40;72.44;100565.44;2092753;84;28265;-61
2021/10/13 09:22:00;;;;;;;5.80;3.95;;;;;;;11.46;71.67;100565.60;2101742;82;28713;-60
2021/10/13 09:25:08;;;;;;;7.65;4.33;;;;;;;11.42;71.44;100568.03;2112692;83;31499;-60
2021/10/13 09:28:23;;;;;;;9.80;4.22;;;;;;;11.32;70.46;100572.12;2060850;84;33774;-59
2021/10/13 09:31:33;;;;;;;7.62;3.87;;;;;;;11.25;71.08;100575.08;1980916;88;29406;-60
2021/10/13 09:34:46;;;;;;;8.15;4.03;;;;;;;11.36;71.24;100577.25;1956961;88;27782;-64
2021/10/13 09:37:53;;;;;;;6.67;4.35;;;;;;;11.49;71.01;100579.33;1964520;87;29541;-62
2021/10/13 09:41:06;;;;;;;6.72;3.85;;;;;;;11.55;70.81;100577.20;1940770;88;31061;-59
2021/10/13 09:44:16;;;;;;;9.08;4.17;;;;;;;11.67;70.40;100581.11;2004589;87;33956;-65
2021/10/13 09:47:23;;;;;;;6.05;4.10;;;;;;;11.82;70.59;100587.53;1986814;87;29358;-59
2021/10/13 09:50:47;;;;;;;8.05;4.20;;;;;;;11.94;69.99;100587.85;1941247;89;28061;-61
2021/10/13 09:53:57;;;;;;;6.15;3.92;;;;;;;12.08;70.09;100588.53;1972099;88;28834;-61
2021/10/13 09:57:00;;;;;;;5.37;3.87;;;;;;;12.21;69.67;100590.09;1935481;89;31324;-59
2021/10/13 10:00:11;;;;;;;5.20;3.42;;;;;;;12.30;69.57;100595.85;1928354;90;33018;-60
2021/10/13 10:03:26;;;;;;;6.47;4.22;;;;;;;12.30;69.00;100595.00;1915381;89;29426;-60
2021/10/13 10:06:35;;;;;;;7.65;4.17;;;;;;;12.40;69.30;100596.24;1925617;90;27915;-60
2021/10/13 10:10:09;;;;;;;6.03;3.65;;;;;;;12.51;68.51;100603.74;1906387;90;27857;-61
2021/10/13 10:13:27;;;;;;;36.70;20.10;;;;;;;12.63;68.98;100600.00;1912487;90;27849;-61
2021/10/13 10:16:38;;;;;;;26.62;15.75;;;;;;;12.97;68.78;100599.52;1971343;88;30495;-61
2021/10/13 10:23:07;;;;;;;9.40;3.98;;;;;;;13.43;68.45;100604.19;1841677;93;28585;-60
2021/10/13 10:26:28;;;;;;;6.53;4.53;;;;;;;13.60;67.38;100603.21;1748881;99;29747;-60
2021/10/13 10:29:45;;;;;;;26.85;17.67;;;;;;;13.58;66.58;100600.62;1798588;97;31321;-61
2021/10/13 10:33:19;;;;;;;9.23;5.78;;;;;;;13.51;66.46;100605.95;1814145;93;28019;-60
2021/10/13 10:43:06;;;;;;;9.13;6.28;;;;;;;13.47;65.60;100612.48;1783422;96;28777;-61
2021/10/13 10:46:11;;;;;;;5.83;2.83;;;;;;;13.35;65.64;100603.25;1785565;97;31132;-61
2021/10/13 10:49:17;;;;;;;6.55;4.55;;;;;;;13.14;65.30;100595.91;1784024;96;34630;-60
2021/10/13 10:52:43;;;;;;;5.78;3.05;;;;;;;13.00;65.75;100603.39;1759340;98;27918;-60
2021/10/13 10:55:46;;;;;;;8.15;5.25;;;;;;;12.92;65.63;100608.70;1726750;99;27798;-61
2021/10/13 10:59:08;;;;;;;7.12;4.67;;;;;;;12.76;65.47;100611.36;1747935;99;28796;-59
2021/10/13 11:02:18;;;;;;;;;;;;;;;12.61;65.74;100614.39;1714876;100;27931;-61
2021/10/13 11:05:25;;;;;;;7.78;3.37;;;;;;;12.58;66.61;100613.69;1733000;100;33079;-61
2021/10/13 11:08:32;;;;;;;6.72;3.47;;;;;;;12.61;66.76;100616.22;1760252;100;30397;-61
2021/10/13 11:11:48;;;;;;;6.80;2.77;;;;;;;12.63;67.01;100612.98;1750735;100;28389;-63
2021/10/13 11:14:53;;;;;;;;;;;;;;;12.64;66.45;100614.72;1733237;101;29400;-60
2021/10/13 11:18:01;;;;;;;;;;;;;;;12.67;66.43;100615.02;1696845;102;31143;-61
2021/10/13 11:21:14;;;;;;;7.00;4.17;;;;;;;12.67;66.03;100606.95;1717140;101;28259;-61
2021/10/13 11:24:19;;;;;;;6.95;3.98;;;;;;;12.70;65.95;100608.99;1780869;97;29431;-62
2021/10/13 11:27:30;;;;;;;6.25;3.80;;;;;;;12.76;66.14;100607.79;1708679;101;27882;-61
2021/10/13 11:30:44;;;;;;;9.63;4.47;;;;;;;12.83;65.29;100601.14;1724010;99;28687;-62
2021/10/13 11:33:52;;;;;;;5.85;3.37;;;;;;;12.86;65.77;100604.13;1714763;101;31926;-62
2021/10/13 11:37:00;;;;;;;8.88;3.77;;;;;;;12.88;65.57;100604.92;1715462;101;33017;-61
2021/10/13 11:40:09;;;;;;;10.78;4.87;;;;;;;12.87;65.35;100605.87;1702307;100;30310;-60
2021/10/13 11:43:19;;;;;;;8.80;4.42;;;;;;;12.74;65.27;100606.54;1738748;99;27824;-61
2021/10/13 11:46:26;;;;;;;15.70;4.87;;;;;;;12.71;65.24;100601.33;1696977;103;27829;-61
2021/10/13 11:50:06;;;;;;;7.97;4.05;;;;;;;12.69;65.13;100600.53;1701512;102;28769;-62
2021/10/13 11:53:15;;;;;;;13.83;4.72;;;;;;;12.86;65.96;100600.98;1704459;101;33037;-61
2021/10/13 11:56:21;;;;;;;11.33;5.45;;;;;;;12.89;65.37;100590.06;1736337;100;29408;-61
2021/10/13 11:59:28;;;;;;;8.55;3.15;;;;;;;13.12;65.28;100602.70;1752319;100;28130;-61
2021/10/13 12:02:40;;;;;;;6.50;3.85;;;;;;;13.17;64.75;100607.81;1753418;100;28710;-61
2021/10/13 12:05:48;;;;;;;5.85;3.10;;;;;;;13.26;64.99;100606.44;1736915;101;31962;-62
2021/10/13 12:09:02;;;;;;;7.12;3.00;;;;;;;13.30;64.48;100612.93;1750757;99;33012;-61
2021/10/13 12:12:16;;;;;;;5.80;2.42;;;;;;;13.31;64.34;100607.94;1844279;92;29453;-61
2021/10/13 12:15:32;;;;;;;7.20;4.45;;;;;;;13.43;64.27;100605.53;1811637;96;27944;-63
2021/10/13 12:18:52;;;;;;;6.15;3.00;;;;;;;13.50;63.67;100612.28;1835175;94;28946;-60
2021/10/13 12:22:05;;;;;;;6.40;2.75;;;;;;;13.62;63.58;100609.38;1808032;96;28099;-61
2021/10/13 12:25:31;;;;;;;5.03;2.37;;;;;;;13.76;63.19;100606.75;1794425;96;29523;-61
2021/10/13 12:28:38;;;;;;;2.60;1.72;;;;;;;13.83;62.56;100612.64;1811551;96;29411;-60
2021/10/13 12:31:45;;;;;;;4.05;2.70;;;;;;;13.96;62.88;100616.37;1863714;93;27811;-61
2021/10/13 12:34:49;;;;;;;5.90;3.22;;;;;;;14.07;62.16;100610.33;1872072;93;29600;-60
2021/10/13 12:37:54;;;;;;;5.58;2.58;;;;;;;14.15;62.25;100609.87;1872648;92;31271;-62
2021/10/13 12:41:06;;;;;;;4.92;2.42;;;;;;;14.21;61.64;100603.27;1881822;92;33069;-61
2021/10/13 12:44:22;;;;;;;6.03;2.45;;;;;;;14.17;61.95;100603.92;1884919;92;29545;-61
2021/10/13 12:47:26;;;;;;;;;;;;;;;14.24;61.90;100609.34;1900103;91;28104;-62
2021/10/13 12:50:32;;;;;;;6.33;3.98;;;;;;;14.27;62.00;100606.47;1807977;94;29719;-62
2021/10/13 12:53:39;;;;;;;6.83;3.45;;;;;;;14.23;61.62;100607.60;1861656;92;31114;-62
2021/10/13 12:56:42;;;;;;;5.62;3.37;;;;;;;14.12;60.68;100610.94;1877825;93;33994;-62
2021/10/13 12:59:46;;;;;;;8.25;2.92;;;;;;;14.02;61.18;100607.52;1877488;92;30273;-62
2021/10/13 13:02:50;;;;;;;9.85;4.65;;;;;;;13.88;61.22;100607.87;1877709;93;27923;-62
2021/10/13 13:05:58;;;;;;;9.70;4.67;;;;;;;13.75;61.29;100603.67;1842634;94;29411;-62
2021/10/13 13:09:04;;;;;;;9.38;4.60;;;;;;;13.56;61.10;100606.56;1832043;96;31044;-61
2021/10/13 13:12:11;;;;;;;7.50;3.58;;;;;;;13.41;61.14;100615.52;1797683;95;33081;-63
2021/10/13 13:15:16;;;;;;;12.73;5.67;;;;;;;13.17;61.32;100601.98;1836027;93;29985;-65
2021/10/13 13:18:22;;;;;;;7.47;4.03;;;;;;;12.97;60.95;100604.44;1876251;91;27807;-63
2021/10/13 13:21:25;;;;;;;6.50;4.20;;;;;;;12.79;60.90;100604.09;1912552;91;29964;-69
2021/10/13 13:24:31;;;;;;;11.70;6.45;;;;;;;12.64;61.43;100605.31;1932154;90;32169;-65
2021/10/13 13:27:34;;;;;;;9.80;4.45;;;;;;;12.59;61.84;100617.63;1945758;90;33318;-67
2021/10/13 13:30:40;;;;;;;4.78;2.87;;;;;;;12.59;62.07;100614.94;1906777;90;29376;-67
2021/10/13 13:33:44;;;;;;;5.15;3.70;;;;;;;12.59;62.06;100623.48;1931976;90;27933;-62
2021/10/13 13:36:48;;;;;;;6.78;3.62;;;;;;;12.56;62.04;100620.50;1953289;88;29632;-62
2021/10/13 13:39:50;;;;;;;6.30;3.20;;;;;;;12.44;61.74;100626.50;1964626;88;31029;-61
2021/10/13 13:42:55;;;;;;;7.10;4.37;;;;;;;12.37;61.65;100626.44;1959661;89;33398;-61
2021/10/13 13:46:01;;;;;;;4.53;2.98;;;;;;;12.38;61.84;100632.21;1944730;89;29366;-61
2021/10/13 13:49:06;;;;;;;8.40;3.35;;;;;;;12.35;61.68;100633.70;1948800;89;27759;-61
2021/10/13 13:52:11;;;;;;;3.83;2.12;;;;;;;12.28;61.74;100635.84;1935108;90;28723;-61
2021/10/13 13:55:15;;;;;;;4.12;1.95;;;;;;;12.21;61.92;100632.61;1953943;89;31126;-62
2021/10/13 13:58:17;;;;;;;4.25;2.98;;;;;;;12.09;62.03;100634.09;1987692;88;33107;-61
2021/10/13 14:01:23;;;;;;;3.98;2.20;;;;;;;12.08;62.22;100641.75;1999223;83;30550;-61
2021/10/13 14:04:29;;;;;;;4.72;3.08;;;;;;;12.04;62.35;100631.25;2113259;83;28431;-61
2021/10/13 14:07:35;;;;;;;5.80;2.75;;;;;;;12.07;62.63;100640.50;2076068;83;28090;-62
2021/10/13 14:10:40;;;;;;;4.80;2.45;;;;;;;12.14;62.61;100647.28;2060270;83;30599;-62
2021/10/13 14:13:45;;;;;;;;;;;;;;;12.25;62.65;100641.37;2082565;83;32970;-61
2021/10/13 14:16:52;;;;;;;5.62;2.90;;;;;;;12.31;62.33;100647.78;2124883;82;29475;-61
2021/10/13 14:19:58;;;;;;;6.78;3.30;;;;;;;12.33;62.42;100645.00;2125196;82;27643;-61
2021/10/13 14:23:03;;;;;;;5.97;2.37;;;;;;;12.39;62.70;100648.23;2089341;83;28672;-61
2021/10/13 14:26:09;;;;;;;9.30;5.45;;;;;;;12.41;62.56;100656.23;2088035;83;31135;-62
2021/10/13 14:29:15;;;;;;;14.80;5.97;;;;;;;12.36;62.22;100657.80;2087010;83;32981;-62
2021/10/13 14:32:19;;;;;;;14.78;6.72;;;;;;;12.31;62.40;100654.01;2061208;83;30137;-61
2021/10/13 14:35:26;;;;;;;11.30;4.75;;;;;;;12.25;62.49;100661.02;2114325;83;27716;-62
2021/10/13 14:38:29;;;;;;;32.42;21.97;;;;;;;12.22;62.59;100667.03;2118804;83;29562;-61
2021/10/13 14:41:35;;;;;;;27.95;20.17;;;;;;;12.24;62.51;100670.06;2117560;83;31620;-60
2021/10/13 14:44:41;;;;;;;25.17;22.48;;;;;;;12.31;62.32;100666.09;2097369;83;33011;-61
2021/10/13 14:47:46;;;;;;;11.43;7.50;;;;;;;12.41;62.62;100669.19;2116217;83;29429;-61
2021/10/13 14:50:50;;;;;;;;;;;;;;;12.55;62.30;100670.28;2124723;82;27695;-61
2021/10/13 14:53:56;;;;;;;8.73;4.37;;;;;;;12.58;62.17;100674.16;2120207;83;28732;-61
2021/10/13 14:56:58;;;;;;;7.53;3.70;;;;;;;12.55;61.83;100677.00;2092682;83;31769;-60